createdAt,value
2022-09-04T00:00:57.277Z,99.90
2022-09-04T00:03:39.987Z,99.90
2022-09-04T00:06:13.591Z,99.90
2022-09-04T00:09:00.274Z,99.90
2022-09-04T00:11:44.936Z,99.90
2022-09-04T00:14:18.591Z,99.90
2022-09-04T00:16:54.830Z,99.90
2022-09-04T00:19:28.948Z,99.90
2022-09-04T00:22:00.366Z,99.90
2022-09-04T00:24:33.386Z,99.90
2022-09-04T00:27:09.007Z,99.90
2022-09-04T00:29:48.699Z,99.90
2022-09-04T00:32:35.144Z,99.90
2022-09-04T00:35:11.472Z,99.90
2022-09-04T00:37:43.819Z,99.90
2022-09-04T00:40:21.742Z,99.90
2022-09-04T00:43:19.909Z,99.90
2022-09-04T00:46:06.200Z,99.90
2022-09-04T00:49:18.229Z,99.90
2022-09-04T00:51:57.817Z,99.90
2022-09-04T00:54:55.615Z,99.90
2022-09-04T00:58:04.699Z,99.90
2022-09-04T01:00:34.513Z,99.90
2022-09-04T01:03:39.204Z,99.90
2022-09-04T01:06:36.053Z,99.90
2022-09-04T01:09:31.210Z,99.90
2022-09-04T01:12:08.647Z,99.90
2022-09-04T01:14:43.044Z,99.90
2022-09-04T01:17:19.542Z,99.90
2022-09-04T01:19:59.276Z,99.90
2022-09-04T01:22:55.552Z,99.90
2022-09-04T01:25:34.789Z,99.90
2022-09-04T01:28:08.485Z,99.90
2022-09-04T01:30:46.071Z,99.90
2022-09-04T01:33:24.014Z,99.90
2022-09-04T01:35:58.265Z,99.90
2022-09-04T01:38:34.791Z,99.90
2022-09-04T01:41:08.697Z,99.90
2022-09-04T01:43:38.121Z,99.90
2022-09-04T01:46:34.604Z,99.90
2022-09-04T01:49:09.572Z,99.90
2022-09-04T01:51:43.671Z,99.90
2022-09-04T01:54:27.509Z,99.90
2022-09-04T01:57:08.486Z,99.90
2022-09-04T01:59:53.010Z,99.90
2022-09-04T02:02:29.438Z,99.90
2022-09-04T02:05:08.458Z,99.90
2022-09-04T02:07:42.155Z,99.90
2022-09-04T02:10:18.660Z,99.90
2022-09-04T02:12:55.117Z,99.90
2022-09-04T02:15:34.143Z,99.90
2022-09-04T02:18:11.732Z,99.90
2022-09-04T02:20:45.409Z,99.90
2022-09-04T02:23:22.099Z,99.90
2022-09-04T02:25:57.457Z,99.90
2022-09-04T02:28:34.609Z,99.90
2022-09-04T02:31:17.654Z,99.90
2022-09-04T02:33:52.993Z,99.90
2022-09-04T02:36:28.853Z,99.90
2022-09-04T02:39:04.217Z,99.90
2022-09-04T02:41:41.239Z,99.90
2022-09-04T02:44:21.026Z,99.90
2022-09-04T02:47:00.964Z,99.90
2022-09-04T02:49:37.782Z,99.90
2022-09-04T02:52:17.018Z,99.90
2022-09-04T02:54:58.872Z,99.90
2022-09-04T02:57:39.415Z,99.90
2022-09-04T03:05:53.429Z,99.90
2022-09-04T03:08:31.128Z,99.90
2022-09-04T03:11:13.678Z,99.90
2022-09-04T03:13:50.733Z,99.90
2022-09-04T03:16:25.116Z,99.90
2022-09-04T03:19:08.579Z,99.90
2022-09-04T03:21:42.735Z,99.90
2022-09-04T03:24:18.550Z,99.90
2022-09-04T03:26:50.797Z,99.90
2022-09-04T03:29:28.047Z,99.90
2022-09-04T03:32:15.890Z,99.90
2022-09-04T03:34:50.184Z,99.90
2022-09-04T03:37:49.783Z,99.90
2022-09-04T03:40:34.885Z,99.90
2022-09-04T03:43:17.073Z,99.90
2022-09-04T03:45:53.063Z,99.90
2022-09-04T03:48:34.023Z,99.90
2022-09-04T03:51:11.687Z,99.90
2022-09-04T03:53:44.133Z,99.90
2022-09-04T03:56:35.931Z,99.90
2022-09-04T03:59:06.259Z,99.90
2022-09-04T04:01:44.924Z,99.90
2022-09-04T04:04:53.834Z,99.90
2022-09-04T04:07:33.052Z,99.90
2022-09-04T04:10:08.460Z,99.90
2022-09-04T04:13:04.307Z,99.90
2022-09-04T04:15:47.355Z,99.90
2022-09-04T04:18:47.903Z,99.90
2022-09-04T04:21:27.573Z,99.90
2022-09-04T04:24:39.167Z,99.90
2022-09-04T04:27:21.840Z,99.90
2022-09-04T04:30:04.059Z,99.90
2022-09-04T04:32:58.189Z,99.90
2022-09-04T04:35:33.881Z,99.90
2022-09-04T04:38:18.235Z,99.90
2022-09-04T04:41:02.574Z,99.90
2022-09-04T04:43:41.817Z,99.90
2022-09-04T04:46:17.320Z,99.90
2022-09-04T04:49:14.001Z,99.90
2022-09-04T04:52:00.938Z,99.90
2022-09-04T04:54:45.113Z,99.90
2022-09-04T04:57:25.585Z,99.90
2022-09-04T05:00:06.534Z,99.90
2022-09-04T05:02:43.383Z,99.90
2022-09-04T05:05:18.827Z,99.90
2022-09-04T05:07:59.211Z,99.90
2022-09-04T05:10:36.269Z,99.90
2022-09-04T05:13:17.786Z,99.90
2022-09-04T05:16:08.354Z,99.90
2022-09-04T05:18:48.778Z,99.90
2022-09-04T05:21:24.538Z,99.90
2022-09-04T05:24:00.098Z,99.90
2022-09-04T05:26:37.735Z,99.90
2022-09-04T05:29:12.192Z,99.90
2022-09-04T05:31:49.410Z,99.90
2022-09-04T05:34:34.935Z,99.90
2022-09-04T05:37:11.384Z,99.90
2022-09-04T05:39:50.607Z,99.90
2022-09-04T05:42:45.440Z,99.90
2022-09-04T05:45:25.160Z,99.90
2022-09-04T05:48:05.385Z,99.90
2022-09-04T05:50:52.147Z,99.90
2022-09-04T05:57:13.070Z,99.90
2022-09-04T06:00:06.940Z,99.90
2022-09-04T06:03:21.738Z,99.90
2022-09-04T06:06:12.369Z,99.90
2022-09-04T06:08:58.091Z,99.90
2022-09-04T06:11:51.470Z,99.90
2022-09-04T06:14:45.052Z,99.90
2022-09-04T06:17:32.435Z,99.90
2022-09-04T06:20:25.662Z,99.90
2022-09-04T06:23:22.092Z,99.90
2022-09-04T06:26:09.966Z,99.90
2022-09-04T06:29:05.603Z,99.90
2022-09-04T06:32:06.276Z,99.90
2022-09-04T06:34:52.587Z,99.90
2022-09-04T06:37:30.255Z,99.90
2022-09-04T06:40:15.434Z,99.90
2022-09-04T06:43:03.795Z,99.90
2022-09-04T06:45:45.560Z,99.90
2022-09-04T06:48:24.609Z,99.90
2022-09-04T06:51:03.472Z,99.90
2022-09-04T06:53:42.620Z,99.90
2022-09-04T06:56:31.821Z,99.90
2022-09-04T06:59:15.037Z,99.90
2022-09-04T07:01:56.517Z,99.90
2022-09-04T07:04:38.014Z,99.90
2022-09-04T07:07:13.480Z,99.90
2022-09-04T07:09:47.498Z,99.90
2022-09-04T07:12:46.210Z,99.90
2022-09-04T07:15:44.489Z,99.80
2022-09-04T07:18:29.927Z,99.20
2022-09-04T07:21:07.368Z,98.60
2022-09-04T07:23:46.896Z,98.70
2022-09-04T07:26:21.982Z,98.30
2022-09-04T07:29:07.160Z,99.00
2022-09-04T07:31:39.974Z,98.10
2022-09-04T07:34:15.105Z,98.30
2022-09-04T07:36:50.101Z,97.60
2022-09-04T07:39:26.426Z,97.30
2022-09-04T07:42:02.046Z,97.40
2022-09-04T07:44:40.627Z,96.70
2022-09-04T07:47:15.765Z,96.30
2022-09-04T07:49:56.622Z,95.80
2022-09-04T07:52:41.773Z,95.40
2022-09-04T07:55:27.870Z,94.50
2022-09-04T07:58:16.844Z,94.70
2022-09-04T08:00:56.954Z,93.80
2022-09-04T08:03:53.663Z,92.90
2022-09-04T08:06:31.342Z,93.10
2022-09-04T08:09:34.266Z,92.70
2022-09-04T08:12:23.349Z,92.70
2022-09-04T08:14:55.917Z,92.20
2022-09-04T08:17:53.058Z,92.00
2022-09-04T08:20:36.684Z,91.90
2022-09-04T08:23:20.044Z,91.60
2022-09-04T08:26:00.828Z,92.10
2022-09-04T08:28:45.550Z,91.80
2022-09-04T08:31:22.275Z,91.40
2022-09-04T08:34:30.243Z,90.90
2022-09-04T08:37:08.931Z,91.00
2022-09-04T08:39:47.985Z,90.60
2022-09-04T08:42:50.377Z,90.60
2022-09-04T08:45:55.256Z,91.10
2022-09-04T08:49:14.063Z,90.80
2022-09-04T08:52:15.573Z,90.70
2022-09-04T08:55:26.193Z,90.60
2022-09-04T08:58:30.627Z,89.90
2022-09-04T09:01:33.368Z,90.40
2022-09-04T09:04:41.733Z,90.60
2022-09-04T09:07:38.753Z,90.10
2022-09-04T09:10:47.326Z,90.20
2022-09-04T09:14:02.056Z,90.00
2022-09-04T09:16:43.855Z,90.10
2022-09-04T09:19:22.877Z,90.00
2022-09-04T09:22:16.799Z,90.30
2022-09-04T09:25:09.709Z,89.90
2022-09-04T09:28:07.060Z,90.30
2022-09-04T09:30:52.089Z,90.30
2022-09-04T09:33:49.488Z,89.40
2022-09-04T09:36:39.548Z,88.50
2022-09-04T09:39:34.271Z,88.80
2022-09-04T09:42:28.383Z,88.60
2022-09-04T09:45:42.086Z,87.90
2022-09-04T09:48:34.292Z,87.40
2022-09-04T09:51:28.457Z,88.70
2022-09-04T09:54:56.487Z,88.20
2022-09-04T09:57:58.116Z,87.90
2022-09-04T10:00:27.634Z,88.30
2022-09-04T10:03:37.637Z,88.60
2022-09-04T10:06:53.917Z,87.70
2022-09-04T10:09:48.597Z,89.10
2022-09-04T10:12:59.073Z,90.10
2022-09-04T10:15:58.787Z,88.80
2022-09-04T10:19:10.142Z,89.10
2022-09-04T10:22:09.114Z,89.80
2022-09-04T10:25:25.061Z,91.10
2022-09-04T10:28:42.378Z,91.00
2022-09-04T10:31:27.842Z,90.10
2022-09-04T10:34:10.928Z,90.10
2022-09-04T10:36:48.496Z,90.90
2022-09-04T10:39:42.708Z,90.70
2022-09-04T10:42:20.466Z,91.30
2022-09-04T10:45:17.784Z,91.80
2022-09-04T10:48:11.043Z,92.20
2022-09-04T10:51:01.913Z,92.10
2022-09-04T10:54:07.791Z,91.10
2022-09-04T10:56:47.170Z,91.80
2022-09-04T10:59:41.016Z,91.40
2022-09-04T11:02:34.651Z,91.10
2022-09-04T11:05:26.706Z,91.20
2022-09-04T11:08:27.341Z,91.50
2022-09-04T11:11:18.588Z,91.00
2022-09-04T11:14:14.534Z,90.80
2022-09-04T11:17:09.909Z,91.00
2022-09-04T11:20:18.517Z,90.70
2022-09-04T11:23:35.059Z,91.20
2022-09-04T11:26:38.032Z,91.80
2022-09-04T11:29:41.321Z,92.30
2022-09-04T11:32:40.578Z,91.70
2022-09-04T11:47:09.429Z,91.90
2022-09-04T11:50:08.477Z,91.50
2022-09-04T11:52:53.775Z,91.70
2022-09-04T11:55:48.383Z,92.10
2022-09-04T11:58:46.038Z,91.60
2022-09-04T12:01:29.733Z,91.20
2022-09-04T12:04:28.939Z,90.80
2022-09-04T12:07:12.446Z,91.00
2022-09-04T12:09:55.064Z,91.00
2022-09-04T12:12:47.499Z,91.20
2022-09-04T12:15:44.492Z,91.30
2022-09-04T12:18:35.655Z,91.30
2022-09-04T12:21:22.732Z,91.20
2022-09-04T12:24:23.122Z,91.30
2022-09-04T12:27:34.430Z,91.10
2022-09-04T12:30:09.097Z,90.90
2022-09-04T12:32:56.677Z,90.80
2022-09-04T12:36:03.257Z,90.90
2022-09-04T12:39:04.056Z,90.80
2022-09-04T12:41:40.773Z,90.70
2022-09-04T12:44:17.952Z,90.40
2022-09-04T12:47:02.149Z,91.00
2022-09-04T12:50:11.236Z,91.00
2022-09-04T12:52:54.620Z,91.10
2022-09-04T12:55:35.896Z,90.70
2022-09-04T12:58:15.640Z,90.20
2022-09-04T13:00:52.591Z,90.00
2022-09-04T13:03:31.504Z,90.30
2022-09-04T13:06:12.674Z,90.50
2022-09-04T13:08:50.512Z,90.80
2022-09-04T13:11:32.427Z,90.60
2022-09-04T13:14:15.909Z,90.70
2022-09-04T13:16:53.265Z,90.50
2022-09-04T13:19:29.332Z,90.50
2022-09-04T13:22:15.538Z,90.60
2022-09-04T13:24:52.643Z,90.50
2022-09-04T13:27:40.319Z,90.40
2022-09-04T13:30:10.517Z,90.10
2022-09-04T13:33:06.286Z,90.10
2022-09-04T13:36:11.214Z,90.40
2022-09-04T13:39:03.462Z,90.10
2022-09-04T13:42:20.773Z,90.10
2022-09-04T13:45:11.511Z,90.20
2022-09-04T13:47:45.220Z,89.50
2022-09-04T13:50:25.060Z,89.60
2022-09-04T13:52:58.543Z,88.30
2022-09-04T13:55:30.742Z,87.90
2022-09-04T13:58:10.570Z,87.60
2022-09-04T14:00:45.909Z,87.80
2022-09-04T14:03:22.565Z,87.40
2022-09-04T14:05:50.919Z,87.60
2022-09-04T14:08:20.624Z,87.20
2022-09-04T14:11:18.419Z,85.60
2022-09-04T14:14:07.401Z,85.40
2022-09-04T14:16:39.634Z,85.30
2022-09-04T14:19:24.494Z,85.60
2022-09-04T14:22:12.936Z,85.60
2022-09-04T14:24:55.955Z,86.20
2022-09-04T14:27:33.804Z,85.00
2022-09-04T14:30:07.186Z,84.10
2022-09-04T14:32:56.790Z,84.50
2022-09-04T14:35:34.309Z,84.70
2022-09-04T14:38:27.215Z,84.60
2022-09-04T14:41:04.127Z,84.10
2022-09-04T14:43:42.487Z,84.30
2022-09-04T14:46:21.557Z,84.10
2022-09-04T14:49:01.125Z,84.20
2022-09-04T14:51:35.401Z,84.60
2022-09-04T14:54:04.947Z,84.90
2022-09-04T14:56:37.713Z,84.10
2022-09-04T14:59:17.639Z,84.10
2022-09-04T15:02:16.576Z,84.70
2022-09-04T15:04:50.225Z,84.50
2022-09-04T15:07:29.617Z,85.30
2022-09-04T15:10:10.915Z,85.20
2022-09-04T15:12:43.114Z,84.60
2022-09-04T15:15:19.586Z,84.40
2022-09-04T15:17:52.835Z,84.20
2022-09-04T15:20:26.009Z,84.70
2022-09-04T15:22:58.105Z,84.80
2022-09-04T15:25:58.209Z,85.10
2022-09-04T15:28:38.490Z,85.10
2022-09-04T15:31:15.890Z,85.00
2022-09-04T15:33:47.577Z,84.70
2022-09-04T15:36:21.079Z,83.70
2022-09-04T15:38:53.402Z,83.90
2022-09-04T15:41:35.270Z,84.10
2022-09-04T15:44:15.726Z,83.50
2022-09-04T15:46:51.257Z,82.50
2022-09-04T15:49:30.424Z,82.80
2022-09-04T15:52:12.659Z,82.90
2022-09-04T15:55:03.888Z,82.20
2022-09-04T15:57:44.288Z,82.50
2022-09-04T16:00:17.420Z,82.50
2022-09-04T16:02:54.863Z,82.90
2022-09-04T16:05:28.201Z,82.10
2022-09-04T16:08:03.877Z,82.60
2022-09-04T16:10:47.688Z,81.60
2022-09-04T16:13:35.831Z,81.40
2022-09-04T16:16:11.234Z,81.20
2022-09-04T16:19:02.527Z,81.00
2022-09-04T16:21:41.460Z,80.40
2022-09-04T16:24:16.143Z,80.90
2022-09-04T16:26:49.183Z,81.00
2022-09-04T16:29:29.418Z,80.70
2022-09-04T16:31:59.446Z,80.40
2022-09-04T16:34:34.221Z,80.50
2022-09-04T16:37:11.117Z,80.70
2022-09-04T16:39:57.630Z,81.10
2022-09-04T16:42:31.519Z,81.10
2022-09-04T16:45:06.235Z,80.90
2022-09-04T16:47:43.901Z,81.10
2022-09-04T16:50:23.657Z,80.70
2022-09-04T16:53:13.861Z,80.50
2022-09-04T16:55:47.762Z,80.70
2022-09-04T16:58:35.529Z,81.30
2022-09-04T17:01:15.587Z,81.10
2022-09-04T17:04:13.912Z,81.50
2022-09-04T17:07:02.929Z,81.80
2022-09-04T17:09:46.477Z,82.10
2022-09-04T17:12:23.775Z,81.80
2022-09-04T17:14:58.146Z,81.80
2022-09-04T17:17:30.707Z,82.20
2022-09-04T17:20:07.267Z,81.80
2022-09-04T17:28:59.622Z,82.70
2022-09-04T17:28:59.749Z,82.50
2022-09-04T17:29:08.631Z,82.30
2022-09-04T17:31:45.907Z,82.30
2022-09-04T17:40:38.112Z,82.30
2022-09-04T17:40:54.112Z,82.30
2022-09-04T17:40:55.856Z,82.60
2022-09-04T17:43:22.970Z,82.70
2022-09-04T17:46:02.624Z,83.30
2022-09-04T17:48:33.253Z,83.20
2022-09-04T17:51:04.080Z,83.40
2022-09-04T17:53:35.330Z,83.50
2022-09-04T17:56:11.621Z,83.70
2022-09-04T17:58:47.158Z,84.20
2022-09-04T18:01:23.154Z,84.50
2022-09-04T18:04:20.563Z,84.70
2022-09-04T18:06:55.975Z,84.90
2022-09-04T18:09:30.336Z,85.50
2022-09-04T18:12:11.105Z,86.60
2022-09-04T18:14:44.283Z,86.20
2022-09-04T18:17:21.145Z,87.20
2022-09-04T18:19:50.978Z,87.60
2022-09-04T18:22:33.495Z,88.20
2022-09-04T18:25:15.831Z,88.20
2022-09-04T18:28:06.294Z,88.20
2022-09-04T18:37:07.652Z,89.10
2022-09-04T18:37:23.982Z,90.00
2022-09-04T18:37:23.984Z,89.10
2022-09-04T18:39:41.982Z,90.20
2022-09-04T18:46:33.295Z,90.60
2022-09-04T18:50:22.333Z,90.70
2022-09-04T18:50:43.482Z,91.00
2022-09-04T18:51:19.616Z,90.70
2022-09-04T18:53:52.267Z,91.20
2022-09-04T18:56:26.490Z,91.20
2022-09-04T18:59:06.804Z,91.60
2022-09-04T19:01:43.888Z,91.50
2022-09-04T19:04:35.349Z,91.30
2022-09-04T19:07:08.221Z,91.40
2022-09-04T19:09:55.880Z,91.30
2022-09-04T19:12:35.844Z,91.30
2022-09-04T19:15:36.577Z,91.70
2022-09-04T19:18:20.544Z,91.60
2022-09-04T19:20:53.184Z,91.70
2022-09-04T19:23:29.120Z,91.80
2022-09-04T19:26:02.344Z,92.00
2022-09-04T19:28:52.410Z,92.10
2022-09-04T19:31:31.602Z,92.50
2022-09-04T19:34:08.780Z,92.70
2022-09-04T19:36:43.750Z,93.00
2022-09-04T19:45:56.147Z,93.10
2022-09-04T19:46:06.660Z,93.20
2022-09-04T19:46:18.371Z,93.50
2022-09-04T19:48:20.651Z,93.80
2022-09-04T19:53:29.945Z,93.90
2022-09-04T19:53:58.480Z,93.90
2022-09-04T19:56:32.545Z,94.40
2022-09-04T19:59:27.016Z,94.30
2022-09-04T20:02:02.714Z,94.60
2022-09-04T20:04:37.232Z,94.90
2022-09-04T20:07:14.058Z,94.90
2022-09-04T20:09:48.148Z,95.10
2022-09-04T20:12:22.701Z,95.30
2022-09-04T20:14:55.309Z,95.70
2022-09-04T20:17:41.529Z,96.00
2022-09-04T20:20:19.098Z,96.50
2022-09-04T20:22:53.587Z,96.50
2022-09-04T20:25:37.689Z,96.80
2022-09-04T20:28:17.128Z,97.00
2022-09-04T20:31:00.819Z,97.10
2022-09-04T20:33:34.413Z,97.20
2022-09-04T20:36:08.686Z,97.50
2022-09-04T20:38:49.488Z,97.80
2022-09-04T20:41:22.784Z,98.20
2022-09-04T20:44:00.201Z,98.50
2022-09-04T20:51:36.233Z,98.80
2022-09-04T20:52:52.986Z,99.40
2022-09-04T20:52:58.239Z,99.70
2022-09-04T20:55:54.804Z,99.70
2022-09-04T21:03:15.152Z,99.90
2022-09-04T21:03:24.384Z,99.90
2022-09-04T21:04:42.322Z,99.90
2022-09-04T21:07:22.496Z,99.90
2022-09-04T21:09:59.744Z,99.90
2022-09-04T21:12:36.454Z,99.90
2022-09-04T21:15:11.677Z,99.90
2022-09-04T21:18:29.454Z,99.90
2022-09-04T21:21:24.890Z,99.90
2022-09-04T21:24:21.031Z,99.90
2022-09-04T21:34:43.823Z,99.90
2022-09-04T21:37:19.125Z,99.90
2022-09-04T21:40:09.385Z,99.90
2022-09-04T21:43:16.188Z,99.90
2022-09-04T21:46:04.678Z,99.90
2022-09-04T21:49:12.198Z,99.90
2022-09-04T21:52:12.161Z,99.90
2022-09-04T21:56:33.287Z,99.90
2022-09-04T22:02:40.139Z,99.90
2022-09-04T22:02:42.743Z,99.90
2022-09-04T22:04:05.688Z,99.90
2022-09-04T22:08:02.415Z,99.90
2022-09-04T22:13:29.186Z,99.90
2022-09-04T22:13:43.609Z,99.90
2022-09-04T22:16:01.249Z,99.90
2022-09-04T22:19:20.976Z,99.90
2022-09-04T22:22:03.234Z,99.90
2022-09-04T22:25:09.116Z,99.90
2022-09-04T22:28:16.083Z,99.90
2022-09-04T22:31:15.382Z,99.90
2022-09-04T22:34:22.315Z,99.90
2022-09-04T22:37:19.039Z,99.90
2022-09-04T22:40:07.145Z,99.90
2022-09-04T22:42:44.457Z,99.90
2022-09-04T22:45:53.487Z,99.90
2022-09-04T22:48:43.115Z,99.90
2022-09-04T22:51:28.481Z,99.90
2022-09-04T22:54:16.589Z,99.90
2022-09-04T22:56:58.258Z,99.90
2022-09-04T22:59:53.116Z,99.90
2022-09-04T23:05:41.610Z,99.90
2022-09-04T23:13:46.537Z,99.90
2022-09-04T23:13:59.758Z,99.90
2022-09-04T23:14:42.168Z,99.90
2022-09-04T23:17:34.115Z,99.90
2022-09-04T23:26:31.498Z,99.90
2022-09-04T23:26:52.821Z,99.90
2022-09-04T23:27:13.005Z,99.90
2022-09-04T23:30:25.079Z,99.90
2022-09-04T23:33:28.452Z,99.90
2022-09-04T23:36:33.363Z,99.90
2022-09-04T23:39:42.322Z,99.90
2022-09-04T23:42:48.235Z,99.90
2022-09-04T23:46:00.904Z,99.90
2022-09-04T23:49:11.293Z,99.90
2022-09-04T23:51:48.758Z,99.90
2022-09-04T23:55:03.120Z,99.90
2022-09-04T23:57:45.318Z,99.90
